sensor_id;sensor_type;location;lat;lon;timestamp;P1;durP1;ratioP1;P2;durP2;ratioP2
7699;SDS011;3892;47.794;19.126;2023-07-20T00:01:32;6.77;;;3.43;;
7699;SDS011;3892;47.794;19.126;2023-07-20T00:04:00;6.87;;;3.37;;
7699;SDS011;3892;47.794;19.126;2023-07-20T00:06:28;6.00;;;3.40;;
7699;SDS011;3892;47.794;19.126;2023-07-20T00:08:56;6.13;;;3.10;;
7699;SDS011;3892;47.794;19.126;2023-07-20T00:11:27;9.80;;;3.33;;
7699;SDS011;3892;47.794;19.126;2023-07-20T00:13:55;9.73;;;3.80;;
7699;SDS011;3892;47.794;19.126;2023-07-20T00:16:24;7.57;;;3.07;;
7699;SDS011;3892;47.794;19.126;2023-07-20T00:18:52;7.93;;;3.53;;
7699;SDS011;3892;47.794;19.126;2023-07-20T00:21:20;6.23;;;3.27;;
7699;SDS011;3892;47.794;19.126;2023-07-20T00:23:48;6.87;;;4.07;;
7699;SDS011;3892;47.794;19.126;2023-07-20T00:26:16;4.33;;;3.30;;
7699;SDS011;3892;47.794;19.126;2023-07-20T00:28:46;5.17;;;3.37;;
7699;SDS011;3892;47.794;19.126;2023-07-20T00:31:14;5.57;;;3.40;;
7699;SDS011;3892;47.794;19.126;2023-07-20T00:33:42;4.83;;;3.57;;
7699;SDS011;3892;47.794;19.126;2023-07-20T00:36:10;5.80;;;3.53;;
7699;SDS011;3892;47.794;19.126;2023-07-20T00:38:38;7.70;;;3.43;;
7699;SDS011;3892;47.794;19.126;2023-07-20T00:41:07;5.30;;;3.40;;
7699;SDS011;3892;47.794;19.126;2023-07-20T00:43:35;5.07;;;3.17;;
7699;SDS011;3892;47.794;19.126;2023-07-20T00:46:04;5.97;;;3.30;;
7699;SDS011;3892;47.794;19.126;2023-07-20T00:48:32;4.50;;;3.43;;
7699;SDS011;3892;47.794;19.126;2023-07-20T00:51:01;4.57;;;2.97;;
7699;SDS011;3892;47.794;19.126;2023-07-20T00:53:29;5.47;;;3.33;;
7699;SDS011;3892;47.794;19.126;2023-07-20T00:55:58;8.00;;;3.27;;
7699;SDS011;3892;47.794;19.126;2023-07-20T00:58:26;5.80;;;3.13;;
7699;SDS011;3892;47.794;19.126;2023-07-20T01:00:54;3.83;;;3.00;;
7699;SDS011;3892;47.794;19.126;2023-07-20T01:03:23;3.90;;;3.33;;
7699;SDS011;3892;47.794;19.126;2023-07-20T01:05:54;6.43;;;3.60;;
7699;SDS011;3892;47.794;19.126;2023-07-20T01:08:28;4.43;;;3.63;;
7699;SDS011;3892;47.794;19.126;2023-07-20T01:11:02;4.93;;;3.20;;
7699;SDS011;3892;47.794;19.126;2023-07-20T01:13:33;8.47;;;3.90;;
7699;SDS011;3892;47.794;19.126;2023-07-20T01:16:02;6.77;;;3.30;;
7699;SDS011;3892;47.794;19.126;2023-07-20T01:18:32;5.77;;;3.40;;
7699;SDS011;3892;47.794;19.126;2023-07-20T01:21:01;4.97;;;3.20;;
7699;SDS011;3892;47.794;19.126;2023-07-20T01:26:27;5.43;;;3.63;;
7699;SDS011;3892;47.794;19.126;2023-07-20T01:29:12;4.90;;;3.67;;
7699;SDS011;3892;47.794;19.126;2023-07-20T01:31:51;4.73;;;3.40;;
7699;SDS011;3892;47.794;19.126;2023-07-20T01:34:22;7.10;;;3.50;;
7699;SDS011;3892;47.794;19.126;2023-07-20T01:36:52;4.67;;;3.47;;
7699;SDS011;3892;47.794;19.126;2023-07-20T01:39:22;7.90;;;3.40;;
7699;SDS011;3892;47.794;19.126;2023-07-20T01:41:51;5.57;;;3.40;;
7699;SDS011;3892;47.794;19.126;2023-07-20T01:44:19;4.30;;;3.40;;
7699;SDS011;3892;47.794;19.126;2023-07-20T01:46:47;5.00;;;3.53;;
7699;SDS011;3892;47.794;19.126;2023-07-20T01:49:17;6.13;;;3.60;;
7699;SDS011;3892;47.794;19.126;2023-07-20T01:51:45;6.40;;;3.07;;
7699;SDS011;3892;47.794;19.126;2023-07-20T01:54:13;5.57;;;3.40;;
7699;SDS011;3892;47.794;19.126;2023-07-20T01:56:41;5.27;;;3.40;;
7699;SDS011;3892;47.794;19.126;2023-07-20T01:59:09;4.73;;;3.17;;
7699;SDS011;3892;47.794;19.126;2023-07-20T02:01:37;7.57;;;3.53;;
7699;SDS011;3892;47.794;19.126;2023-07-20T02:04:05;5.17;;;3.60;;
7699;SDS011;3892;47.794;19.126;2023-07-20T02:06:35;5.43;;;3.40;;
7699;SDS011;3892;47.794;19.126;2023-07-20T02:09:03;6.83;;;3.70;;
7699;SDS011;3892;47.794;19.126;2023-07-20T02:11:31;6.53;;;3.57;;
7699;SDS011;3892;47.794;19.126;2023-07-20T02:13:59;7.20;;;3.80;;
7699;SDS011;3892;47.794;19.126;2023-07-20T02:16:27;4.10;;;2.83;;
7699;SDS011;3892;47.794;19.126;2023-07-20T02:18:56;7.70;;;3.63;;
7699;SDS011;3892;47.794;19.126;2023-07-20T02:21:24;6.43;;;3.43;;
7699;SDS011;3892;47.794;19.126;2023-07-20T02:23:54;5.03;;;3.70;;
7699;SDS011;3892;47.794;19.126;2023-07-20T02:26:22;8.47;;;3.60;;
7699;SDS011;3892;47.794;19.126;2023-07-20T02:28:50;7.00;;;3.63;;
7699;SDS011;3892;47.794;19.126;2023-07-20T02:31:18;7.63;;;3.73;;
7699;SDS011;3892;47.794;19.126;2023-07-20T02:33:46;7.73;;;3.90;;
7699;SDS011;3892;47.794;19.126;2023-07-20T02:36:14;9.70;;;5.07;;
7699;SDS011;3892;47.794;19.126;2023-07-20T02:38:43;6.93;;;4.57;;
7699;SDS011;3892;47.794;19.126;2023-07-20T02:41:13;4.93;;;3.90;;
7699;SDS011;3892;47.794;19.126;2023-07-20T02:43:41;7.40;;;3.70;;
7699;SDS011;3892;47.794;19.126;2023-07-20T02:46:09;7.23;;;3.50;;
7699;SDS011;3892;47.794;19.126;2023-07-20T02:48:37;6.50;;;4.00;;
7699;SDS011;3892;47.794;19.126;2023-07-20T02:51:05;3.97;;;3.53;;
7699;SDS011;3892;47.794;19.126;2023-07-20T02:53:33;6.13;;;3.50;;
7699;SDS011;3892;47.794;19.126;2023-07-20T02:56:02;5.00;;;3.33;;
7699;SDS011;3892;47.794;19.126;2023-07-20T02:58:33;5.27;;;3.70;;
7699;SDS011;3892;47.794;19.126;2023-07-20T03:01:03;5.50;;;3.77;;
7699;SDS011;3892;47.794;19.126;2023-07-20T03:03:31;5.97;;;3.87;;
7699;SDS011;3892;47.794;19.126;2023-07-20T03:06:04;6.50;;;3.57;;
7699;SDS011;3892;47.794;19.126;2023-07-20T03:08:35;6.43;;;3.60;;
7699;SDS011;3892;47.794;19.126;2023-07-20T03:11:03;6.57;;;3.80;;
7699;SDS011;3892;47.794;19.126;2023-07-20T03:13:32;5.93;;;3.50;;
7699;SDS011;3892;47.794;19.126;2023-07-20T03:16:00;10.13;;;3.90;;
7699;SDS011;3892;47.794;19.126;2023-07-20T03:18:28;5.37;;;3.50;;
7699;SDS011;3892;47.794;19.126;2023-07-20T03:20:56;6.27;;;3.90;;
7699;SDS011;3892;47.794;19.126;2023-07-20T03:23:24;5.70;;;3.67;;
7699;SDS011;3892;47.794;19.126;2023-07-20T03:25:53;5.57;;;3.80;;
7699;SDS011;3892;47.794;19.126;2023-07-20T03:28:21;8.27;;;4.20;;
7699;SDS011;3892;47.794;19.126;2023-07-20T03:30:53;6.37;;;3.60;;
7699;SDS011;3892;47.794;19.126;2023-07-20T03:33:22;15.80;;;4.40;;
7699;SDS011;3892;47.794;19.126;2023-07-20T03:35:52;5.77;;;4.23;;
7699;SDS011;3892;47.794;19.126;2023-07-20T03:38:20;13.40;;;4.37;;
7699;SDS011;3892;47.794;19.126;2023-07-20T03:40:49;7.63;;;3.90;;
7699;SDS011;3892;47.794;19.126;2023-07-20T03:43:18;9.57;;;4.10;;
7699;SDS011;3892;47.794;19.126;2023-07-20T03:45:46;6.33;;;4.00;;
7699;SDS011;3892;47.794;19.126;2023-07-20T03:48:16;8.40;;;4.07;;
7699;SDS011;3892;47.794;19.126;2023-07-20T03:50:45;13.33;;;3.97;;
7699;SDS011;3892;47.794;19.126;2023-07-20T03:53:14;5.90;;;3.97;;
7699;SDS011;3892;47.794;19.126;2023-07-20T03:55:44;7.03;;;3.70;;
7699;SDS011;3892;47.794;19.126;2023-07-20T03:58:13;5.93;;;3.57;;
7699;SDS011;3892;47.794;19.126;2023-07-20T04:00:43;5.57;;;3.70;;
7699;SDS011;3892;47.794;19.126;2023-07-20T04:03:12;5.47;;;3.60;;
7699;SDS011;3892;47.794;19.126;2023-07-20T04:05:42;7.07;;;4.20;;
7699;SDS011;3892;47.794;19.126;2023-07-20T04:08:10;6.67;;;3.77;;
7699;SDS011;3892;47.794;19.126;2023-07-20T04:10:43;6.10;;;3.60;;
7699;SDS011;3892;47.794;19.126;2023-07-20T04:13:11;8.03;;;4.07;;
7699;SDS011;3892;47.794;19.126;2023-07-20T04:15:40;8.70;;;4.20;;
7699;SDS011;3892;47.794;19.126;2023-07-20T04:18:08;9.17;;;3.90;;
7699;SDS011;3892;47.794;19.126;2023-07-20T04:20:36;8.90;;;3.87;;
7699;SDS011;3892;47.794;19.126;2023-07-20T04:23:05;8.50;;;4.00;;
7699;SDS011;3892;47.794;19.126;2023-07-20T04:25:33;7.47;;;3.80;;
7699;SDS011;3892;47.794;19.126;2023-07-20T04:28:05;8.17;;;3.87;;
7699;SDS011;3892;47.794;19.126;2023-07-20T04:30:36;7.10;;;3.77;;
7699;SDS011;3892;47.794;19.126;2023-07-20T04:33:05;6.53;;;4.40;;
7699;SDS011;3892;47.794;19.126;2023-07-20T04:35:46;4.90;;;3.70;;
7699;SDS011;3892;47.794;19.126;2023-07-20T04:38:17;5.30;;;3.53;;
7699;SDS011;3892;47.794;19.126;2023-07-20T04:40:46;6.10;;;4.20;;
7699;SDS011;3892;47.794;19.126;2023-07-20T04:43:17;6.37;;;4.20;;
7699;SDS011;3892;47.794;19.126;2023-07-20T04:45:45;7.40;;;3.97;;
7699;SDS011;3892;47.794;19.126;2023-07-20T04:48:14;4.57;;;3.93;;
7699;SDS011;3892;47.794;19.126;2023-07-20T04:50:43;5.03;;;3.70;;
7699;SDS011;3892;47.794;19.126;2023-07-20T04:53:12;4.00;;;3.60;;
7699;SDS011;3892;47.794;19.126;2023-07-20T04:55:46;4.60;;;3.87;;
7699;SDS011;3892;47.794;19.126;2023-07-20T04:58:16;7.00;;;3.63;;
7699;SDS011;3892;47.794;19.126;2023-07-20T05:00:45;5.80;;;3.60;;
7699;SDS011;3892;47.794;19.126;2023-07-20T05:03:13;8.27;;;4.03;;
7699;SDS011;3892;47.794;19.126;2023-07-20T05:05:41;5.10;;;3.87;;
7699;SDS011;3892;47.794;19.126;2023-07-20T05:08:09;4.33;;;3.97;;
7699;SDS011;3892;47.794;19.126;2023-07-20T05:10:37;5.07;;;3.77;;
7699;SDS011;3892;47.794;19.126;2023-07-20T05:13:07;4.80;;;4.30;;
7699;SDS011;3892;47.794;19.126;2023-07-20T05:15:36;4.77;;;3.73;;
7699;SDS011;3892;47.794;19.126;2023-07-20T05:18:04;4.43;;;3.70;;
7699;SDS011;3892;47.794;19.126;2023-07-20T05:20:32;7.53;;;4.10;;
7699;SDS011;3892;47.794;19.126;2023-07-20T05:23:01;4.80;;;4.40;;
7699;SDS011;3892;47.794;19.126;2023-07-20T05:25:29;5.30;;;4.67;;
7699;SDS011;3892;47.794;19.126;2023-07-20T05:27:57;5.80;;;3.90;;
7699;SDS011;3892;47.794;19.126;2023-07-20T05:30:27;5.70;;;4.10;;
7699;SDS011;3892;47.794;19.126;2023-07-20T05:32:55;7.50;;;4.83;;
7699;SDS011;3892;47.794;19.126;2023-07-20T05:35:23;5.80;;;4.20;;
7699;SDS011;3892;47.794;19.126;2023-07-20T05:37:52;4.93;;;4.43;;
7699;SDS011;3892;47.794;19.126;2023-07-20T05:40:20;5.17;;;4.10;;
7699;SDS011;3892;47.794;19.126;2023-07-20T05:42:48;5.73;;;4.80;;
7699;SDS011;3892;47.794;19.126;2023-07-20T05:45:18;7.47;;;4.63;;
7699;SDS011;3892;47.794;19.126;2023-07-20T05:47:47;8.03;;;4.20;;
7699;SDS011;3892;47.794;19.126;2023-07-20T05:50:15;4.97;;;4.10;;
7699;SDS011;3892;47.794;19.126;2023-07-20T05:52:44;6.47;;;4.27;;
7699;SDS011;3892;47.794;19.126;2023-07-20T05:55:12;8.13;;;4.70;;
7699;SDS011;3892;47.794;19.126;2023-07-20T05:57:40;6.33;;;4.17;;
7699;SDS011;3892;47.794;19.126;2023-07-20T06:00:10;7.03;;;4.10;;
7699;SDS011;3892;47.794;19.126;2023-07-20T06:02:40;4.70;;;4.23;;
7699;SDS011;3892;47.794;19.126;2023-07-20T06:05:10;7.77;;;4.10;;
7699;SDS011;3892;47.794;19.126;2023-07-20T06:07:38;6.20;;;4.23;;
7699;SDS011;3892;47.794;19.126;2023-07-20T06:10:06;6.10;;;4.10;;
7699;SDS011;3892;47.794;19.126;2023-07-20T06:12:35;5.00;;;4.50;;
7699;SDS011;3892;47.794;19.126;2023-07-20T06:15:03;6.17;;;4.27;;
7699;SDS011;3892;47.794;19.126;2023-07-20T06:17:33;5.77;;;4.40;;
7699;SDS011;3892;47.794;19.126;2023-07-20T06:20:01;8.40;;;4.47;;
7699;SDS011;3892;47.794;19.126;2023-07-20T06:22:34;5.43;;;3.80;;
7699;SDS011;3892;47.794;19.126;2023-07-20T06:25:02;5.87;;;4.10;;
7699;SDS011;3892;47.794;19.126;2023-07-20T06:27:31;5.53;;;4.27;;
7699;SDS011;3892;47.794;19.126;2023-07-20T06:29:59;5.67;;;4.20;;
7699;SDS011;3892;47.794;19.126;2023-07-20T06:32:27;5.53;;;4.40;;
7699;SDS011;3892;47.794;19.126;2023-07-20T06:34:56;6.00;;;4.00;;
7699;SDS011;3892;47.794;19.126;2023-07-20T06:37:24;5.87;;;4.33;;
7699;SDS011;3892;47.794;19.126;2023-07-20T06:39:53;4.90;;;4.23;;
7699;SDS011;3892;47.794;19.126;2023-07-20T06:42:24;4.67;;;4.27;;
7699;SDS011;3892;47.794;19.126;2023-07-20T06:45:12;5.30;;;4.00;;
7699;SDS011;3892;47.794;19.126;2023-07-20T06:47:41;7.93;;;4.20;;
7699;SDS011;3892;47.794;19.126;2023-07-20T06:50:09;9.83;;;4.37;;
7699;SDS011;3892;47.794;19.126;2023-07-20T06:52:42;4.63;;;4.17;;
7699;SDS011;3892;47.794;19.126;2023-07-20T06:55:11;5.43;;;4.17;;
7699;SDS011;3892;47.794;19.126;2023-07-20T06:57:39;5.67;;;4.40;;
7699;SDS011;3892;47.794;19.126;2023-07-20T07:00:09;7.93;;;4.20;;
7699;SDS011;3892;47.794;19.126;2023-07-20T07:02:38;7.90;;;4.30;;
7699;SDS011;3892;47.794;19.126;2023-07-20T07:05:07;6.07;;;4.53;;
7699;SDS011;3892;47.794;19.126;2023-07-20T07:07:38;7.57;;;4.73;;
7699;SDS011;3892;47.794;19.126;2023-07-20T07:10:07;5.23;;;4.20;;
7699;SDS011;3892;47.794;19.126;2023-07-20T07:12:36;4.37;;;3.97;;
7699;SDS011;3892;47.794;19.126;2023-07-20T07:15:05;9.13;;;4.20;;
7699;SDS011;3892;47.794;19.126;2023-07-20T07:17:34;5.20;;;4.20;;
7699;SDS011;3892;47.794;19.126;2023-07-20T07:20:04;6.97;;;4.40;;
7699;SDS011;3892;47.794;19.126;2023-07-20T07:22:35;6.73;;;4.20;;
7699;SDS011;3892;47.794;19.126;2023-07-20T07:25:04;5.30;;;4.23;;
7699;SDS011;3892;47.794;19.126;2023-07-20T07:27:33;4.67;;;3.80;;
7699;SDS011;3892;47.794;19.126;2023-07-20T07:30:03;7.63;;;4.30;;
7699;SDS011;3892;47.794;19.126;2023-07-20T07:32:32;4.70;;;3.87;;
7699;SDS011;3892;47.794;19.126;2023-07-20T07:35:00;6.60;;;4.37;;
7699;SDS011;3892;47.794;19.126;2023-07-20T07:37:28;4.40;;;4.00;;
7699;SDS011;3892;47.794;19.126;2023-07-20T07:39:58;4.87;;;3.70;;
7699;SDS011;3892;47.794;19.126;2023-07-20T07:42:28;7.80;;;3.90;;
7699;SDS011;3892;47.794;19.126;2023-07-20T07:44:56;9.50;;;3.87;;
7699;SDS011;3892;47.794;19.126;2023-07-20T07:47:26;6.23;;;4.50;;
7699;SDS011;3892;47.794;19.126;2023-07-20T07:49:54;7.60;;;3.77;;
7699;SDS011;3892;47.794;19.126;2023-07-20T07:52:23;6.80;;;3.83;;
7699;SDS011;3892;47.794;19.126;2023-07-20T07:54:51;6.23;;;3.60;;
7699;SDS011;3892;47.794;19.126;2023-07-20T07:57:20;5.13;;;3.37;;
7699;SDS011;3892;47.794;19.126;2023-07-20T07:59:48;8.33;;;3.23;;
7699;SDS011;3892;47.794;19.126;2023-07-20T08:02:16;4.83;;;3.50;;
7699;SDS011;3892;47.794;19.126;2023-07-20T08:04:46;4.53;;;4.00;;
7699;SDS011;3892;47.794;19.126;2023-07-20T08:07:14;4.60;;;3.33;;
7699;SDS011;3892;47.794;19.126;2023-07-20T08:09:42;4.30;;;3.10;;
7699;SDS011;3892;47.794;19.126;2023-07-20T08:12:10;4.67;;;3.57;;
7699;SDS011;3892;47.794;19.126;2023-07-20T08:14:39;4.80;;;3.00;;
7699;SDS011;3892;47.794;19.126;2023-07-20T08:17:07;3.70;;;2.87;;
7699;SDS011;3892;47.794;19.126;2023-07-20T08:19:36;5.90;;;2.90;;
7699;SDS011;3892;47.794;19.126;2023-07-20T08:22:09;5.63;;;2.97;;
7699;SDS011;3892;47.794;19.126;2023-07-20T08:24:39;5.43;;;3.00;;
7699;SDS011;3892;47.794;19.126;2023-07-20T08:27:07;6.33;;;2.97;;
7699;SDS011;3892;47.794;19.126;2023-07-20T08:29:36;6.23;;;3.10;;
7699;SDS011;3892;47.794;19.126;2023-07-20T08:32:05;7.40;;;3.00;;
7699;SDS011;3892;47.794;19.126;2023-07-20T08:34:33;8.37;;;3.03;;
7699;SDS011;3892;47.794;19.126;2023-07-20T08:37:02;4.90;;;2.70;;
7699;SDS011;3892;47.794;19.126;2023-07-20T08:39:31;4.30;;;2.80;;
7699;SDS011;3892;47.794;19.126;2023-07-20T08:42:01;4.77;;;3.00;;
7699;SDS011;3892;47.794;19.126;2023-07-20T08:44:32;4.27;;;2.70;;
7699;SDS011;3892;47.794;19.126;2023-07-20T08:47:01;3.67;;;2.77;;
7699;SDS011;3892;47.794;19.126;2023-07-20T08:49:31;6.00;;;2.73;;
7699;SDS011;3892;47.794;19.126;2023-07-20T08:51:59;4.17;;;2.80;;
7699;SDS011;3892;47.794;19.126;2023-07-20T08:54:31;4.57;;;2.83;;
7699;SDS011;3892;47.794;19.126;2023-07-20T08:57:01;6.80;;;3.00;;
7699;SDS011;3892;47.794;19.126;2023-07-20T08:59:30;3.47;;;2.70;;
7699;SDS011;3892;47.794;19.126;2023-07-20T09:01:59;5.63;;;2.90;;
7699;SDS011;3892;47.794;19.126;2023-07-20T09:04:28;5.57;;;2.80;;
7699;SDS011;3892;47.794;19.126;2023-07-20T09:06:56;4.27;;;2.90;;
7699;SDS011;3892;47.794;19.126;2023-07-20T09:09:25;8.17;;;3.20;;
7699;SDS011;3892;47.794;19.126;2023-07-20T09:11:54;4.57;;;3.00;;
7699;SDS011;3892;47.794;19.126;2023-07-20T09:14:22;4.70;;;2.73;;
7699;SDS011;3892;47.794;19.126;2023-07-20T09:16:52;4.67;;;2.87;;
7699;SDS011;3892;47.794;19.126;2023-07-20T09:19:21;3.10;;;2.80;;
7699;SDS011;3892;47.794;19.126;2023-07-20T09:21:50;5.10;;;3.03;;
7699;SDS011;3892;47.794;19.126;2023-07-20T09:24:19;5.87;;;3.13;;
7699;SDS011;3892;47.794;19.126;2023-07-20T09:26:48;5.23;;;2.90;;
7699;SDS011;3892;47.794;19.126;2023-07-20T09:29:19;3.10;;;2.77;;
7699;SDS011;3892;47.794;19.126;2023-07-20T09:31:58;5.00;;;2.90;;
7699;SDS011;3892;47.794;19.126;2023-07-20T09:34:28;3.70;;;3.00;;
7699;SDS011;3892;47.794;19.126;2023-07-20T09:37:00;3.70;;;2.90;;
7699;SDS011;3892;47.794;19.126;2023-07-20T09:39:28;4.67;;;2.80;;
7699;SDS011;3892;47.794;19.126;2023-07-20T09:41:59;3.40;;;2.80;;
7699;SDS011;3892;47.794;19.126;2023-07-20T09:44:32;2.93;;;2.57;;
7699;SDS011;3892;47.794;19.126;2023-07-20T09:47:04;6.20;;;3.40;;
7699;SDS011;3892;47.794;19.126;2023-07-20T09:49:33;3.80;;;3.20;;
7699;SDS011;3892;47.794;19.126;2023-07-20T09:52:09;5.47;;;3.10;;
7699;SDS011;3892;47.794;19.126;2023-07-20T09:54:38;4.20;;;3.00;;
7699;SDS011;3892;47.794;19.126;2023-07-20T09:57:07;3.80;;;2.67;;
7699;SDS011;3892;47.794;19.126;2023-07-20T09:59:37;4.03;;;2.77;;
7699;SDS011;3892;47.794;19.126;2023-07-20T10:02:08;10.37;;;2.53;;
7699;SDS011;3892;47.794;19.126;2023-07-20T10:04:43;5.00;;;3.03;;
7699;SDS011;3892;47.794;19.126;2023-07-20T10:07:12;11.43;;;3.20;;
7699;SDS011;3892;47.794;19.126;2023-07-20T10:09:42;8.20;;;3.40;;
7699;SDS011;3892;47.794;19.126;2023-07-20T10:12:12;4.37;;;2.70;;
7699;SDS011;3892;47.794;19.126;2023-07-20T10:14:44;5.83;;;2.57;;
7699;SDS011;3892;47.794;19.126;2023-07-20T10:17:20;6.10;;;2.70;;
7699;SDS011;3892;47.794;19.126;2023-07-20T10:19:50;7.17;;;2.60;;
7699;SDS011;3892;47.794;19.126;2023-07-20T10:22:25;5.17;;;2.83;;
7699;SDS011;3892;47.794;19.126;2023-07-20T10:24:54;4.13;;;2.37;;
7699;SDS011;3892;47.794;19.126;2023-07-20T10:27:25;3.17;;;2.47;;
7699;SDS011;3892;47.794;19.126;2023-07-20T10:29:55;5.93;;;2.80;;
7699;SDS011;3892;47.794;19.126;2023-07-20T10:32:25;3.03;;;2.50;;
7699;SDS011;3892;47.794;19.126;2023-07-20T10:34:55;9.40;;;3.00;;
7699;SDS011;3892;47.794;19.126;2023-07-20T10:40:28;5.30;;;2.47;;
7699;SDS011;3892;47.794;19.126;2023-07-20T10:43:02;5.00;;;2.80;;
7699;SDS011;3892;47.794;19.126;2023-07-20T10:45:41;5.03;;;2.63;;
7699;SDS011;3892;47.794;19.126;2023-07-20T10:48:13;5.90;;;2.57;;
7699;SDS011;3892;47.794;19.126;2023-07-20T10:50:43;7.03;;;3.13;;
7699;SDS011;3892;47.794;19.126;2023-07-20T10:53:12;8.60;;;2.90;;
7699;SDS011;3892;47.794;19.126;2023-07-20T10:55:42;5.27;;;2.43;;
7699;SDS011;3892;47.794;19.126;2023-07-20T10:58:12;4.60;;;2.20;;
7699;SDS011;3892;47.794;19.126;2023-07-20T11:00:56;10.67;;;2.57;;
7699;SDS011;3892;47.794;19.126;2023-07-20T11:03:26;4.63;;;2.30;;
7699;SDS011;3892;47.794;19.126;2023-07-20T11:05:57;5.53;;;2.73;;
7699;SDS011;3892;47.794;19.126;2023-07-20T11:08:39;4.13;;;2.30;;
7699;SDS011;3892;47.794;19.126;2023-07-20T11:11:20;5.53;;;2.30;;
7699;SDS011;3892;47.794;19.126;2023-07-20T11:13:59;4.63;;;2.13;;
7699;SDS011;3892;47.794;19.126;2023-07-20T11:16:36;4.45;;;2.25;;
7699;SDS011;3892;47.794;19.126;2023-07-20T11:19:06;6.40;;;2.35;;
7699;SDS011;3892;47.794;19.126;2023-07-20T11:22:02;10.07;;;2.20;;
7699;SDS011;3892;47.794;19.126;2023-07-20T11:24:34;11.07;;;2.60;;
7699;SDS011;3892;47.794;19.126;2023-07-20T11:27:05;6.47;;;2.58;;
7699;SDS011;3892;47.794;19.126;2023-07-20T11:29:34;6.75;;;2.70;;
7699;SDS011;3892;47.794;19.126;2023-07-20T11:32:04;2.47;;;2.15;;
7699;SDS011;3892;47.794;19.126;2023-07-20T11:34:33;4.13;;;2.20;;
7699;SDS011;3892;47.794;19.126;2023-07-20T11:37:02;4.72;;;2.28;;
7699;SDS011;3892;47.794;19.126;2023-07-20T11:39:33;4.28;;;2.38;;
7699;SDS011;3892;47.794;19.126;2023-07-20T11:42:02;3.42;;;2.38;;
7699;SDS011;3892;47.794;19.126;2023-07-20T11:44:30;2.45;;;1.90;;
7699;SDS011;3892;47.794;19.126;2023-07-20T11:47:04;4.05;;;2.30;;
7699;SDS011;3892;47.794;19.126;2023-07-20T11:49:34;4.57;;;2.58;;
7699;SDS011;3892;47.794;19.126;2023-07-20T11:52:04;4.38;;;2.55;;
7699;SDS011;3892;47.794;19.126;2023-07-20T11:54:34;4.22;;;2.05;;
7699;SDS011;3892;47.794;19.126;2023-07-20T11:57:02;9.70;;;2.30;;
7699;SDS011;3892;47.794;19.126;2023-07-20T11:59:32;7.03;;;2.50;;
7699;SDS011;3892;47.794;19.126;2023-07-20T12:02:01;6.45;;;2.10;;
7699;SDS011;3892;47.794;19.126;2023-07-20T12:04:31;3.85;;;2.40;;
7699;SDS011;3892;47.794;19.126;2023-07-20T12:07:00;4.40;;;2.08;;
7699;SDS011;3892;47.794;19.126;2023-07-20T12:09:29;5.43;;;2.33;;
7699;SDS011;3892;47.794;19.126;2023-07-20T12:12:09;7.65;;;2.30;;
7699;SDS011;3892;47.794;19.126;2023-07-20T12:14:38;8.40;;;2.90;;
7699;SDS011;3892;47.794;19.126;2023-07-20T12:17:07;4.35;;;2.38;;
7699;SDS011;3892;47.794;19.126;2023-07-20T12:19:39;3.70;;;2.05;;
7699;SDS011;3892;47.794;19.126;2023-07-20T12:22:07;4.00;;;2.20;;
7699;SDS011;3892;47.794;19.126;2023-07-20T12:24:37;3.38;;;2.22;;
7699;SDS011;3892;47.794;19.126;2023-07-20T12:27:05;4.75;;;2.45;;
7699;SDS011;3892;47.794;19.126;2023-07-20T12:29:34;4.60;;;2.47;;
7699;SDS011;3892;47.794;19.126;2023-07-20T12:32:03;4.50;;;2.53;;
7699;SDS011;3892;47.794;19.126;2023-07-20T12:34:32;2.85;;;2.10;;
7699;SDS011;3892;47.794;19.126;2023-07-20T12:37:04;3.30;;;2.38;;
7699;SDS011;3892;47.794;19.126;2023-07-20T12:39:32;3.17;;;2.13;;
7699;SDS011;3892;47.794;19.126;2023-07-20T12:42:00;3.42;;;2.53;;
7699;SDS011;3892;47.794;19.126;2023-07-20T12:44:28;4.35;;;1.95;;
7699;SDS011;3892;47.794;19.126;2023-07-20T12:46:56;3.22;;;1.95;;
7699;SDS011;3892;47.794;19.126;2023-07-20T12:49:24;3.58;;;2.03;;
7699;SDS011;3892;47.794;19.126;2023-07-20T12:51:53;5.63;;;2.10;;
7699;SDS011;3892;47.794;19.126;2023-07-20T12:54:24;8.35;;;2.40;;
7699;SDS011;3892;47.794;19.126;2023-07-20T12:56:53;13.48;;;4.97;;
7699;SDS011;3892;47.794;19.126;2023-07-20T12:59:24;7.28;;;2.40;;
7699;SDS011;3892;47.794;19.126;2023-07-20T13:01:52;4.50;;;2.13;;
7699;SDS011;3892;47.794;19.126;2023-07-20T13:04:20;3.83;;;2.15;;
7699;SDS011;3892;47.794;19.126;2023-07-20T13:06:48;3.53;;;2.30;;
7699;SDS011;3892;47.794;19.126;2023-07-20T13:09:16;2.17;;;2.00;;
7699;SDS011;3892;47.794;19.126;2023-07-20T13:11:46;3.60;;;2.30;;
7699;SDS011;3892;47.794;19.126;2023-07-20T13:14:14;4.32;;;2.28;;
7699;SDS011;3892;47.794;19.126;2023-07-20T13:16:42;2.80;;;2.20;;
7699;SDS011;3892;47.794;19.126;2023-07-20T13:19:10;5.50;;;2.58;;
7699;SDS011;3892;47.794;19.126;2023-07-20T13:21:39;6.82;;;2.38;;
7699;SDS011;3892;47.794;19.126;2023-07-20T13:24:08;5.70;;;2.10;;
7699;SDS011;3892;47.794;19.126;2023-07-20T13:26:36;3.60;;;1.92;;
7699;SDS011;3892;47.794;19.126;2023-07-20T13:29:05;3.45;;;1.90;;
7699;SDS011;3892;47.794;19.126;2023-07-20T13:31:33;2.60;;;1.92;;
7699;SDS011;3892;47.794;19.126;2023-07-20T13:34:01;3.45;;;2.08;;
7699;SDS011;3892;47.794;19.126;2023-07-20T13:36:30;2.63;;;1.80;;
7699;SDS011;3892;47.794;19.126;2023-07-20T13:38:59;3.03;;;2.00;;
7699;SDS011;3892;47.794;19.126;2023-07-20T13:41:27;4.25;;;2.17;;
7699;SDS011;3892;47.794;19.126;2023-07-20T13:43:56;2.97;;;2.30;;
7699;SDS011;3892;47.794;19.126;2023-07-20T13:46:25;6.90;;;6.20;;
7699;SDS011;3892;47.794;19.126;2023-07-20T13:48:56;5.78;;;2.67;;
7699;SDS011;3892;47.794;19.126;2023-07-20T13:51:24;3.10;;;2.17;;
7699;SDS011;3892;47.794;19.126;2023-07-20T13:53:53;1.98;;;1.83;;
7699;SDS011;3892;47.794;19.126;2023-07-20T13:56:21;6.38;;;2.15;;
7699;SDS011;3892;47.794;19.126;2023-07-20T13:58:49;2.30;;;2.10;;
7699;SDS011;3892;47.794;19.126;2023-07-20T14:01:17;2.15;;;1.70;;
7699;SDS011;3892;47.794;19.126;2023-07-20T14:03:49;3.65;;;1.90;;
7699;SDS011;3892;47.794;19.126;2023-07-20T14:06:19;3.55;;;2.08;;
7699;SDS011;3892;47.794;19.126;2023-07-20T14:08:47;3.03;;;2.08;;
7699;SDS011;3892;47.794;19.126;2023-07-20T14:11:16;2.30;;;2.10;;
7699;SDS011;3892;47.794;19.126;2023-07-20T14:13:47;3.17;;;1.80;;
7699;SDS011;3892;47.794;19.126;2023-07-20T14:16:15;3.05;;;2.00;;
7699;SDS011;3892;47.794;19.126;2023-07-20T14:18:43;2.72;;;1.80;;
7699;SDS011;3892;47.794;19.126;2023-07-20T14:21:16;3.00;;;1.95;;
7699;SDS011;3892;47.794;19.126;2023-07-20T14:23:45;5.47;;;2.03;;
7699;SDS011;3892;47.794;19.126;2023-07-20T14:26:14;2.72;;;2.15;;
7699;SDS011;3892;47.794;19.126;2023-07-20T14:28:44;6.18;;;1.80;;
7699;SDS011;3892;47.794;19.126;2023-07-20T14:31:12;3.35;;;1.83;;
7699;SDS011;3892;47.794;19.126;2023-07-20T14:33:40;3.78;;;1.90;;
7699;SDS011;3892;47.794;19.126;2023-07-20T14:36:08;3.53;;;1.95;;
7699;SDS011;3892;47.794;19.126;2023-07-20T14:38:38;4.38;;;1.90;;
7699;SDS011;3892;47.794;19.126;2023-07-20T14:41:07;4.22;;;2.08;;
7699;SDS011;3892;47.794;19.126;2023-07-20T14:43:35;3.90;;;1.80;;
7699;SDS011;3892;47.794;19.126;2023-07-20T14:46:03;3.70;;;2.08;;
7699;SDS011;3892;47.794;19.126;2023-07-20T14:48:31;5.18;;;2.13;;
7699;SDS011;3892;47.794;19.126;2023-07-20T14:50:59;5.28;;;2.08;;
7699;SDS011;3892;47.794;19.126;2023-07-20T14:53:30;4.63;;;2.05;;
7699;SDS011;3892;47.794;19.126;2023-07-20T14:56:03;7.50;;;2.40;;
7699;SDS011;3892;47.794;19.126;2023-07-20T14:58:31;3.53;;;1.90;;
7699;SDS011;3892;47.794;19.126;2023-07-20T15:01:00;3.65;;;2.00;;
7699;SDS011;3892;47.794;19.126;2023-07-20T15:03:28;3.83;;;1.88;;
7699;SDS011;3892;47.794;19.126;2023-07-20T15:05:57;2.92;;;1.77;;
7699;SDS011;3892;47.794;19.126;2023-07-20T15:08:25;3.60;;;1.90;;
7699;SDS011;3892;47.794;19.126;2023-07-20T15:10:54;3.65;;;2.00;;
7699;SDS011;3892;47.794;19.126;2023-07-20T15:13:24;2.20;;;1.60;;
7699;SDS011;3892;47.794;19.126;2023-07-20T15:15:52;3.25;;;1.90;;
7699;SDS011;3892;47.794;19.126;2023-07-20T15:18:20;4.25;;;2.00;;
7699;SDS011;3892;47.794;19.126;2023-07-20T15:20:53;2.97;;;2.00;;